sensor_id;sensor_type;location;lat;lon;timestamp;temperature;humidity
15578;DHT22;17667;45.598;5.214;2023-05-07T00:01:10;19.70;58.50
15578;DHT22;17667;45.598;5.214;2023-05-07T00:03:58;19.70;59.40
15578;DHT22;17667;45.598;5.214;2023-05-07T00:06:46;19.70;59.00
15578;DHT22;17667;45.598;5.214;2023-05-07T00:09:33;19.70;59.10
15578;DHT22;17667;45.598;5.214;2023-05-07T00:12:22;19.60;59.20
15578;DHT22;17667;45.598;5.214;2023-05-07T00:15:10;19.60;59.70
15578;DHT22;17667;45.598;5.214;2023-05-07T00:17:57;19.60;59.00
15578;DHT22;17667;45.598;5.214;2023-05-07T00:20:46;19.50;59.30
15578;DHT22;17667;45.598;5.214;2023-05-07T00:23:34;19.50;59.10
15578;DHT22;17667;45.598;5.214;2023-05-07T00:26:21;19.50;59.20
15578;DHT22;17667;45.598;5.214;2023-05-07T00:29:11;19.40;59.10
15578;DHT22;17667;45.598;5.214;2023-05-07T00:31:59;19.40;59.30
15578;DHT22;17667;45.598;5.214;2023-05-07T00:34:47;19.40;59.50
15578;DHT22;17667;45.598;5.214;2023-05-07T00:37:34;19.30;59.50
15578;DHT22;17667;45.598;5.214;2023-05-07T00:40:22;19.30;59.00
15578;DHT22;17667;45.598;5.214;2023-05-07T00:43:09;19.30;59.00
15578;DHT22;17667;45.598;5.214;2023-05-07T00:46:02;19.20;59.80
15578;DHT22;17667;45.598;5.214;2023-05-07T00:48:50;19.20;60.30
15578;DHT22;17667;45.598;5.214;2023-05-07T00:51:38;19.20;60.00
15578;DHT22;17667;45.598;5.214;2023-05-07T00:54:26;19.10;60.40
15578;DHT22;17667;45.598;5.214;2023-05-07T00:57:16;19.10;60.50
15578;DHT22;17667;45.598;5.214;2023-05-07T01:00:04;19.10;60.10
15578;DHT22;17667;45.598;5.214;2023-05-07T01:02:53;19.00;58.90
15578;DHT22;17667;45.598;5.214;2023-05-07T01:05:41;19.00;60.00
15578;DHT22;17667;45.598;5.214;2023-05-07T01:08:30;19.00;60.00
15578;DHT22;17667;45.598;5.214;2023-05-07T01:11:18;19.00;60.20
15578;DHT22;17667;45.598;5.214;2023-05-07T01:14:07;18.90;59.90
15578;DHT22;17667;45.598;5.214;2023-05-07T01:16:55;18.90;60.70
15578;DHT22;17667;45.598;5.214;2023-05-07T01:19:45;18.80;60.20
15578;DHT22;17667;45.598;5.214;2023-05-07T01:22:36;18.80;60.10
15578;DHT22;17667;45.598;5.214;2023-05-07T01:25:25;18.80;60.40
15578;DHT22;17667;45.598;5.214;2023-05-07T01:28:16;18.80;60.10
15578;DHT22;17667;45.598;5.214;2023-05-07T01:31:04;18.80;60.30
15578;DHT22;17667;45.598;5.214;2023-05-07T01:33:54;18.70;61.20
15578;DHT22;17667;45.598;5.214;2023-05-07T01:36:43;18.70;61.00
15578;DHT22;17667;45.598;5.214;2023-05-07T01:39:33;18.70;62.20
15578;DHT22;17667;45.598;5.214;2023-05-07T01:42:21;18.70;61.90
15578;DHT22;17667;45.598;5.214;2023-05-07T01:45:10;18.60;62.00
15578;DHT22;17667;45.598;5.214;2023-05-07T01:47:58;18.60;60.40
15578;DHT22;17667;45.598;5.214;2023-05-07T01:50:46;18.60;60.50
15578;DHT22;17667;45.598;5.214;2023-05-07T01:53:36;18.60;61.20
15578;DHT22;17667;45.598;5.214;2023-05-07T01:56:25;18.60;61.00
15578;DHT22;17667;45.598;5.214;2023-05-07T01:59:13;18.60;62.10
15578;DHT22;17667;45.598;5.214;2023-05-07T02:02:01;18.50;61.30
15578;DHT22;17667;45.598;5.214;2023-05-07T02:04:50;18.50;60.60
15578;DHT22;17667;45.598;5.214;2023-05-07T02:07:38;18.50;60.20
15578;DHT22;17667;45.598;5.214;2023-05-07T02:10:26;18.50;61.00
15578;DHT22;17667;45.598;5.214;2023-05-07T02:13:15;18.50;60.70
15578;DHT22;17667;45.598;5.214;2023-05-07T02:16:04;18.40;60.60
15578;DHT22;17667;45.598;5.214;2023-05-07T02:18:51;18.40;61.20
15578;DHT22;17667;45.598;5.214;2023-05-07T02:21:39;18.40;62.70
15578;DHT22;17667;45.598;5.214;2023-05-07T02:24:27;18.40;63.80
15578;DHT22;17667;45.598;5.214;2023-05-07T02:27:14;18.40;62.40
15578;DHT22;17667;45.598;5.214;2023-05-07T02:30:06;18.30;66.40
15578;DHT22;17667;45.598;5.214;2023-05-07T02:32:54;18.30;66.40
15578;DHT22;17667;45.598;5.214;2023-05-07T02:35:42;18.20;69.60
15578;DHT22;17667;45.598;5.214;2023-05-07T02:38:31;18.20;66.90
15578;DHT22;17667;45.598;5.214;2023-05-07T02:41:19;18.20;64.40
15578;DHT22;17667;45.598;5.214;2023-05-07T02:44:07;18.10;63.30
15578;DHT22;17667;45.598;5.214;2023-05-07T02:46:57;18.10;64.50
15578;DHT22;17667;45.598;5.214;2023-05-07T02:49:45;18.10;67.40
15578;DHT22;17667;45.598;5.214;2023-05-07T02:52:32;18.10;68.80
15578;DHT22;17667;45.598;5.214;2023-05-07T02:55:20;18.00;69.50
15578;DHT22;17667;45.598;5.214;2023-05-07T02:58:08;18.00;70.40
15578;DHT22;17667;45.598;5.214;2023-05-07T03:00:56;18.00;69.40
15578;DHT22;17667;45.598;5.214;2023-05-07T03:03:59;17.90;68.20
15578;DHT22;17667;45.598;5.214;2023-05-07T03:06:47;17.90;66.60
15578;DHT22;17667;45.598;5.214;2023-05-07T03:09:35;17.90;67.60
15578;DHT22;17667;45.598;5.214;2023-05-07T03:12:22;17.80;66.90
15578;DHT22;17667;45.598;5.214;2023-05-07T03:15:10;17.80;64.40
15578;DHT22;17667;45.598;5.214;2023-05-07T03:18:00;17.80;66.70
15578;DHT22;17667;45.598;5.214;2023-05-07T03:20:49;17.70;64.70
15578;DHT22;17667;45.598;5.214;2023-05-07T03:23:37;17.70;66.20
15578;DHT22;17667;45.598;5.214;2023-05-07T03:26:24;17.70;65.30
15578;DHT22;17667;45.598;5.214;2023-05-07T03:29:12;17.60;67.10
15578;DHT22;17667;45.598;5.214;2023-05-07T03:32:00;17.60;63.20
15578;DHT22;17667;45.598;5.214;2023-05-07T03:34:48;17.60;66.00
15578;DHT22;17667;45.598;5.214;2023-05-07T03:37:37;17.50;66.40
15578;DHT22;17667;45.598;5.214;2023-05-07T03:40:25;17.50;68.10
15578;DHT22;17667;45.598;5.214;2023-05-07T03:43:14;17.40;67.50
15578;DHT22;17667;45.598;5.214;2023-05-07T03:46:07;17.40;65.60
15578;DHT22;17667;45.598;5.214;2023-05-07T03:48:54;17.40;65.00
15578;DHT22;17667;45.598;5.214;2023-05-07T03:51:42;17.40;66.60
15578;DHT22;17667;45.598;5.214;2023-05-07T03:54:31;17.30;65.80
15578;DHT22;17667;45.598;5.214;2023-05-07T03:57:19;17.30;65.30
15578;DHT22;17667;45.598;5.214;2023-05-07T04:00:08;17.30;65.50
15578;DHT22;17667;45.598;5.214;2023-05-07T04:03:05;17.30;65.60
15578;DHT22;17667;45.598;5.214;2023-05-07T04:05:53;17.30;66.50
15578;DHT22;17667;45.598;5.214;2023-05-07T04:08:41;17.30;66.10
15578;DHT22;17667;45.598;5.214;2023-05-07T04:11:30;17.20;66.10
15578;DHT22;17667;45.598;5.214;2023-05-07T04:14:18;17.20;65.40
15578;DHT22;17667;45.598;5.214;2023-05-07T04:17:07;17.10;65.20
15578;DHT22;17667;45.598;5.214;2023-05-07T04:19:57;17.10;64.80
15578;DHT22;17667;45.598;5.214;2023-05-07T04:22:45;17.00;66.60
15578;DHT22;17667;45.598;5.214;2023-05-07T04:25:33;17.00;65.90
15578;DHT22;17667;45.598;5.214;2023-05-07T04:28:28;16.90;66.20
15578;DHT22;17667;45.598;5.214;2023-05-07T04:31:17;16.90;65.90
15578;DHT22;17667;45.598;5.214;2023-05-07T04:34:08;16.90;67.20
15578;DHT22;17667;45.598;5.214;2023-05-07T04:36:58;16.90;67.20
15578;DHT22;17667;45.598;5.214;2023-05-07T04:39:47;16.90;67.70
15578;DHT22;17667;45.598;5.214;2023-05-07T04:42:35;16.90;67.40
15578;DHT22;17667;45.598;5.214;2023-05-07T04:45:24;16.90;70.50
15578;DHT22;17667;45.598;5.214;2023-05-07T04:48:13;16.90;67.20
15578;DHT22;17667;45.598;5.214;2023-05-07T04:51:02;16.90;66.60
15578;DHT22;17667;45.598;5.214;2023-05-07T04:53:50;16.90;68.40
15578;DHT22;17667;45.598;5.214;2023-05-07T04:56:38;16.90;68.50
15578;DHT22;17667;45.598;5.214;2023-05-07T04:59:26;16.90;70.70
15578;DHT22;17667;45.598;5.214;2023-05-07T05:02:15;16.90;66.50
15578;DHT22;17667;45.598;5.214;2023-05-07T05:05:05;16.80;70.30
15578;DHT22;17667;45.598;5.214;2023-05-07T05:07:53;16.80;70.30
15578;DHT22;17667;45.598;5.214;2023-05-07T05:10:42;16.80;72.00
15578;DHT22;17667;45.598;5.214;2023-05-07T05:13:30;16.90;71.70
15578;DHT22;17667;45.598;5.214;2023-05-07T05:16:20;16.80;70.60
15578;DHT22;17667;45.598;5.214;2023-05-07T05:19:09;16.90;70.70
15578;DHT22;17667;45.598;5.214;2023-05-07T05:21:58;16.90;72.80
15578;DHT22;17667;45.598;5.214;2023-05-07T05:24:47;16.90;68.90
15578;DHT22;17667;45.598;5.214;2023-05-07T05:27:35;16.80;66.50
15578;DHT22;17667;45.598;5.214;2023-05-07T05:30:24;16.80;68.90
15578;DHT22;17667;45.598;5.214;2023-05-07T05:33:11;16.80;71.20
15578;DHT22;17667;45.598;5.214;2023-05-07T05:36:01;16.80;73.30
15578;DHT22;17667;45.598;5.214;2023-05-07T05:38:48;16.90;72.00
15578;DHT22;17667;45.598;5.214;2023-05-07T05:41:36;16.90;72.40
15578;DHT22;17667;45.598;5.214;2023-05-07T05:44:24;16.90;75.00
15578;DHT22;17667;45.598;5.214;2023-05-07T05:47:11;16.90;74.70
15578;DHT22;17667;45.598;5.214;2023-05-07T05:49:59;17.00;74.40
15578;DHT22;17667;45.598;5.214;2023-05-07T05:52:48;17.00;74.90
15578;DHT22;17667;45.598;5.214;2023-05-07T05:55:37;17.00;70.50
15578;DHT22;17667;45.598;5.214;2023-05-07T05:58:25;17.00;74.40
15578;DHT22;17667;45.598;5.214;2023-05-07T06:01:18;17.10;73.60
15578;DHT22;17667;45.598;5.214;2023-05-07T06:04:08;17.10;71.20
15578;DHT22;17667;45.598;5.214;2023-05-07T06:06:56;17.10;73.70
15578;DHT22;17667;45.598;5.214;2023-05-07T06:09:46;17.10;72.20
15578;DHT22;17667;45.598;5.214;2023-05-07T06:12:36;17.20;69.60
15578;DHT22;17667;45.598;5.214;2023-05-07T06:15:24;17.30;69.80
15578;DHT22;17667;45.598;5.214;2023-05-07T06:18:12;17.40;69.50
15578;DHT22;17667;45.598;5.214;2023-05-07T06:21:00;17.50;65.90
15578;DHT22;17667;45.598;5.214;2023-05-07T06:23:50;17.60;65.70
15578;DHT22;17667;45.598;5.214;2023-05-07T06:26:39;17.60;67.30
15578;DHT22;17667;45.598;5.214;2023-05-07T06:29:27;17.70;67.20
15578;DHT22;17667;45.598;5.214;2023-05-07T06:32:16;17.70;64.70
15578;DHT22;17667;45.598;5.214;2023-05-07T06:35:05;17.80;65.10
15578;DHT22;17667;45.598;5.214;2023-05-07T06:37:56;17.90;66.10
15578;DHT22;17667;45.598;5.214;2023-05-07T06:40:48;18.00;65.30
15578;DHT22;17667;45.598;5.214;2023-05-07T06:43:37;18.00;65.80
15578;DHT22;17667;45.598;5.214;2023-05-07T06:46:57;18.00;66.60
15578;DHT22;17667;45.598;5.214;2023-05-07T06:49:46;18.00;65.70
15578;DHT22;17667;45.598;5.214;2023-05-07T06:52:36;18.10;66.10
15578;DHT22;17667;45.598;5.214;2023-05-07T06:55:25;18.20;66.10
15578;DHT22;17667;45.598;5.214;2023-05-07T06:58:13;18.30;65.40
15578;DHT22;17667;45.598;5.214;2023-05-07T07:01:03;18.40;66.40
15578;DHT22;17667;45.598;5.214;2023-05-07T07:03:51;18.50;65.80
15578;DHT22;17667;45.598;5.214;2023-05-07T07:06:41;18.50;66.00
15578;DHT22;17667;45.598;5.214;2023-05-07T07:09:31;18.70;65.50
15578;DHT22;17667;45.598;5.214;2023-05-07T07:12:20;18.70;65.80
15578;DHT22;17667;45.598;5.214;2023-05-07T07:15:09;18.70;64.60
15578;DHT22;17667;45.598;5.214;2023-05-07T07:17:59;18.80;65.30
15578;DHT22;17667;45.598;5.214;2023-05-07T07:20:46;18.90;64.80
15578;DHT22;17667;45.598;5.214;2023-05-07T07:23:34;18.90;64.90
15578;DHT22;17667;45.598;5.214;2023-05-07T07:26:22;19.10;64.10
15578;DHT22;17667;45.598;5.214;2023-05-07T07:29:10;19.20;64.30
15578;DHT22;17667;45.598;5.214;2023-05-07T07:31:59;19.40;65.40
15578;DHT22;17667;45.598;5.214;2023-05-07T07:34:48;19.50;63.10
15578;DHT22;17667;45.598;5.214;2023-05-07T07:37:36;19.70;63.40
15578;DHT22;17667;45.598;5.214;2023-05-07T07:40:24;19.80;62.70
15578;DHT22;17667;45.598;5.214;2023-05-07T07:43:12;20.00;62.20
15578;DHT22;17667;45.598;5.214;2023-05-07T07:46:01;20.10;62.00
15578;DHT22;17667;45.598;5.214;2023-05-07T07:48:49;20.40;61.70
15578;DHT22;17667;45.598;5.214;2023-05-07T07:51:38;20.50;62.20
15578;DHT22;17667;45.598;5.214;2023-05-07T07:54:26;20.70;62.00
15578;DHT22;17667;45.598;5.214;2023-05-07T07:57:13;21.00;61.10
15578;DHT22;17667;45.598;5.214;2023-05-07T08:00:05;21.30;60.90
15578;DHT22;17667;45.598;5.214;2023-05-07T08:03:01;21.50;60.10
15578;DHT22;17667;45.598;5.214;2023-05-07T08:05:53;21.50;60.40
15578;DHT22;17667;45.598;5.214;2023-05-07T08:08:43;21.40;60.20
15578;DHT22;17667;45.598;5.214;2023-05-07T08:11:30;21.40;60.60
15578;DHT22;17667;45.598;5.214;2023-05-07T08:14:18;21.30;60.30
15578;DHT22;17667;45.598;5.214;2023-05-07T08:17:07;21.40;60.70
15578;DHT22;17667;45.598;5.214;2023-05-07T08:19:56;21.50;60.30
15578;DHT22;17667;45.598;5.214;2023-05-07T08:22:44;21.50;60.20
15578;DHT22;17667;45.598;5.214;2023-05-07T08:25:34;21.60;60.30
15578;DHT22;17667;45.598;5.214;2023-05-07T08:28:22;21.70;60.70
15578;DHT22;17667;45.598;5.214;2023-05-07T08:31:11;21.90;60.00
15578;DHT22;17667;45.598;5.214;2023-05-07T08:34:03;21.90;59.70
15578;DHT22;17667;45.598;5.214;2023-05-07T08:36:53;22.00;59.60
15578;DHT22;17667;45.598;5.214;2023-05-07T08:39:42;22.00;59.80
15578;DHT22;17667;45.598;5.214;2023-05-07T08:42:38;22.00;59.60
15578;DHT22;17667;45.598;5.214;2023-05-07T08:45:28;22.00;59.80
15578;DHT22;17667;45.598;5.214;2023-05-07T08:48:17;21.90;59.70
15578;DHT22;17667;45.598;5.214;2023-05-07T08:51:15;22.00;59.80
15578;DHT22;17667;45.598;5.214;2023-05-07T08:54:06;21.90;60.00
15578;DHT22;17667;45.598;5.214;2023-05-07T08:56:54;21.70;59.80
15578;DHT22;17667;45.598;5.214;2023-05-07T08:59:43;21.60;60.50
15578;DHT22;17667;45.598;5.214;2023-05-07T09:02:31;21.50;60.10
15578;DHT22;17667;45.598;5.214;2023-05-07T09:05:19;21.50;60.40
15578;DHT22;17667;45.598;5.214;2023-05-07T09:08:07;21.50;62.80
15578;DHT22;17667;45.598;5.214;2023-05-07T09:10:56;21.50;61.00
15578;DHT22;17667;45.598;5.214;2023-05-07T09:13:44;21.50;61.00
15578;DHT22;17667;45.598;5.214;2023-05-07T09:16:33;21.40;61.10
15578;DHT22;17667;45.598;5.214;2023-05-07T09:19:26;21.30;60.90
15578;DHT22;17667;45.598;5.214;2023-05-07T09:22:16;21.30;61.10
15578;DHT22;17667;45.598;5.214;2023-05-07T09:25:27;21.20;60.90
15578;DHT22;17667;45.598;5.214;2023-05-07T09:28:16;21.20;61.20
15578;DHT22;17667;45.598;5.214;2023-05-07T09:31:04;21.10;61.30
15578;DHT22;17667;45.598;5.214;2023-05-07T09:33:54;21.10;61.50
15578;DHT22;17667;45.598;5.214;2023-05-07T09:36:45;21.10;62.40
15578;DHT22;17667;45.598;5.214;2023-05-07T09:39:40;21.00;63.20
15578;DHT22;17667;45.598;5.214;2023-05-07T09:42:28;20.90;65.00
15578;DHT22;17667;45.598;5.214;2023-05-07T09:45:22;20.80;62.80
15578;DHT22;17667;45.598;5.214;2023-05-07T09:48:12;20.80;62.80
15578;DHT22;17667;45.598;5.214;2023-05-07T09:51:18;20.60;63.00
15578;DHT22;17667;45.598;5.214;2023-05-07T09:54:10;20.40;62.90
15578;DHT22;17667;45.598;5.214;2023-05-07T09:57:01;20.30;63.30
15578;DHT22;17667;45.598;5.214;2023-05-07T09:59:51;20.10;62.90
15578;DHT22;17667;45.598;5.214;2023-05-07T10:02:40;20.10;66.50
15578;DHT22;17667;45.598;5.214;2023-05-07T10:05:32;20.00;64.80
15578;DHT22;17667;45.598;5.214;2023-05-07T10:08:22;20.00;64.40
15578;DHT22;17667;45.598;5.214;2023-05-07T10:11:13;19.90;64.00
15578;DHT22;17667;45.598;5.214;2023-05-07T10:14:03;19.90;66.50
15578;DHT22;17667;45.598;5.214;2023-05-07T10:16:53;19.90;64.30
15578;DHT22;17667;45.598;5.214;2023-05-07T10:19:42;19.90;66.20
15578;DHT22;17667;45.598;5.214;2023-05-07T10:22:34;19.90;66.00
15578;DHT22;17667;45.598;5.214;2023-05-07T10:25:29;19.80;64.90
15578;DHT22;17667;45.598;5.214;2023-05-07T10:28:23;19.80;65.00
15578;DHT22;17667;45.598;5.214;2023-05-07T10:31:25;19.80;65.60
15578;DHT22;17667;45.598;5.214;2023-05-07T10:34:20;19.80;66.40
15578;DHT22;17667;45.598;5.214;2023-05-07T10:37:10;19.80;65.30
15578;DHT22;17667;45.598;5.214;2023-05-07T10:39:58;19.80;64.00
15578;DHT22;17667;45.598;5.214;2023-05-07T10:42:57;19.80;65.60
15578;DHT22;17667;45.598;5.214;2023-05-07T10:46:10;19.80;63.80
15578;DHT22;17667;45.598;5.214;2023-05-07T10:49:09;19.90;68.80
15578;DHT22;17667;45.598;5.214;2023-05-07T10:52:20;20.00;64.60
15578;DHT22;17667;45.598;5.214;2023-05-07T10:55:38;20.00;64.60
15578;DHT22;17667;45.598;5.214;2023-05-07T10:58:33;20.20;64.50
15578;DHT22;17667;45.598;5.214;2023-05-07T11:01:50;20.30;64.70
15578;DHT22;17667;45.598;5.214;2023-05-07T11:04:44;20.40;65.50
15578;DHT22;17667;45.598;5.214;2023-05-07T11:07:40;20.40;64.40
15578;DHT22;17667;45.598;5.214;2023-05-07T11:10:48;20.40;64.50
15578;DHT22;17667;45.598;5.214;2023-05-07T11:13:54;20.50;68.10
15578;DHT22;17667;45.598;5.214;2023-05-07T11:16:50;20.50;65.30
15578;DHT22;17667;45.598;5.214;2023-05-07T11:19:50;20.50;64.90
15578;DHT22;17667;45.598;5.214;2023-05-07T11:27:03;20.50;65.50
15578;DHT22;17667;45.598;5.214;2023-05-07T11:29:52;20.60;66.30
15578;DHT22;17667;45.598;5.214;2023-05-07T11:32:40;20.70;66.90
15578;DHT22;17667;45.598;5.214;2023-05-07T11:35:29;20.80;65.50
15578;DHT22;17667;45.598;5.214;2023-05-07T11:38:18;20.80;65.50
15578;DHT22;17667;45.598;5.214;2023-05-07T11:41:07;20.80;64.70
15578;DHT22;17667;45.598;5.214;2023-05-07T11:43:56;20.80;64.90
15578;DHT22;17667;45.598;5.214;2023-05-07T11:46:46;20.80;64.10
15578;DHT22;17667;45.598;5.214;2023-05-07T11:49:34;20.80;63.90
15578;DHT22;17667;45.598;5.214;2023-05-07T11:52:23;20.80;63.90
15578;DHT22;17667;45.598;5.214;2023-05-07T11:55:11;20.80;64.10
15578;DHT22;17667;45.598;5.214;2023-05-07T11:57:58;20.80;63.90
15578;DHT22;17667;45.598;5.214;2023-05-07T12:00:48;20.80;64.20
15578;DHT22;17667;45.598;5.214;2023-05-07T12:03:40;20.80;64.20
15578;DHT22;17667;45.598;5.214;2023-05-07T12:06:28;20.90;65.50
15578;DHT22;17667;45.598;5.214;2023-05-07T12:09:16;20.90;63.80
15578;DHT22;17667;45.598;5.214;2023-05-07T12:12:04;21.00;64.30
15578;DHT22;17667;45.598;5.214;2023-05-07T12:14:52;21.00;64.20
15578;DHT22;17667;45.598;5.214;2023-05-07T12:17:40;21.10;64.20
15578;DHT22;17667;45.598;5.214;2023-05-07T12:20:29;21.20;64.40
15578;DHT22;17667;45.598;5.214;2023-05-07T12:23:17;21.20;63.60
15578;DHT22;17667;45.598;5.214;2023-05-07T12:26:05;21.20;63.50
15578;DHT22;17667;45.598;5.214;2023-05-07T12:28:54;21.30;63.80
15578;DHT22;17667;45.598;5.214;2023-05-07T12:31:41;21.40;63.50
15578;DHT22;17667;45.598;5.214;2023-05-07T12:34:29;21.40;63.50
15578;DHT22;17667;45.598;5.214;2023-05-07T12:37:24;21.50;63.30
15578;DHT22;17667;45.598;5.214;2023-05-07T12:40:14;21.50;64.00
15578;DHT22;17667;45.598;5.214;2023-05-07T12:43:02;21.50;63.40
15578;DHT22;17667;45.598;5.214;2023-05-07T12:45:50;21.50;63.50
15578;DHT22;17667;45.598;5.214;2023-05-07T12:48:43;21.50;62.90
15578;DHT22;17667;45.598;5.214;2023-05-07T12:51:31;21.50;63.10
15578;DHT22;17667;45.598;5.214;2023-05-07T12:54:30;21.50;63.10
15578;DHT22;17667;45.598;5.214;2023-05-07T12:57:19;21.50;63.30
15578;DHT22;17667;45.598;5.214;2023-05-07T13:00:08;21.50;63.10
15578;DHT22;17667;45.598;5.214;2023-05-07T13:02:56;21.40;63.80
15578;DHT22;17667;45.598;5.214;2023-05-07T13:05:45;21.30;63.60
15578;DHT22;17667;45.598;5.214;2023-05-07T13:08:35;21.20;63.40
15578;DHT22;17667;45.598;5.214;2023-05-07T13:11:24;21.20;64.00
15578;DHT22;17667;45.598;5.214;2023-05-07T13:14:12;21.10;64.20
15578;DHT22;17667;45.598;5.214;2023-05-07T13:16:59;21.10;63.60
15578;DHT22;17667;45.598;5.214;2023-05-07T13:19:47;21.10;63.90
15578;DHT22;17667;45.598;5.214;2023-05-07T13:22:35;21.20;64.00
15578;DHT22;17667;45.598;5.214;2023-05-07T13:25:23;21.30;63.70
15578;DHT22;17667;45.598;5.214;2023-05-07T13:28:12;21.30;64.00
15578;DHT22;17667;45.598;5.214;2023-05-07T13:30:59;21.20;63.60
15578;DHT22;17667;45.598;5.214;2023-05-07T13:33:47;21.20;63.90
15578;DHT22;17667;45.598;5.214;2023-05-07T13:36:35;21.10;63.90
15578;DHT22;17667;45.598;5.214;2023-05-07T13:39:23;21.10;64.10
15578;DHT22;17667;45.598;5.214;2023-05-07T13:42:11;20.90;65.00
15578;DHT22;17667;45.598;5.214;2023-05-07T13:45:00;20.90;64.40
15578;DHT22;17667;45.598;5.214;2023-05-07T13:47:49;20.80;64.40
15578;DHT22;17667;45.598;5.214;2023-05-07T13:50:36;20.80;65.50
15578;DHT22;17667;45.598;5.214;2023-05-07T13:53:26;20.80;65.00
15578;DHT22;17667;45.598;5.214;2023-05-07T13:56:14;20.80;64.70
15578;DHT22;17667;45.598;5.214;2023-05-07T13:59:01;20.80;65.30
15578;DHT22;17667;45.598;5.214;2023-05-07T14:01:50;20.80;64.90
15578;DHT22;17667;45.598;5.214;2023-05-07T14:04:38;20.90;64.80
15578;DHT22;17667;45.598;5.214;2023-05-07T14:07:25;20.80;64.70
15578;DHT22;17667;45.598;5.214;2023-05-07T14:10:13;20.80;64.80
15578;DHT22;17667;45.598;5.214;2023-05-07T14:13:01;20.80;64.80
15578;DHT22;17667;45.598;5.214;2023-05-07T14:15:49;20.70;65.40
15578;DHT22;17667;45.598;5.214;2023-05-07T14:18:38;20.70;64.80
15578;DHT22;17667;45.598;5.214;2023-05-07T14:21:25;20.60;65.30
15578;DHT22;17667;45.598;5.214;2023-05-07T14:24:13;20.50;65.40
15578;DHT22;17667;45.598;5.214;2023-05-07T14:27:04;20.40;66.20
15578;DHT22;17667;45.598;5.214;2023-05-07T14:29:51;20.30;65.50
15578;DHT22;17667;45.598;5.214;2023-05-07T14:32:39;20.30;66.90
15578;DHT22;17667;45.598;5.214;2023-05-07T14:35:28;20.20;65.70
15578;DHT22;17667;45.598;5.214;2023-05-07T14:38:15;20.20;65.80
15578;DHT22;17667;45.598;5.214;2023-05-07T14:41:03;20.20;65.80
15578;DHT22;17667;45.598;5.214;2023-05-07T14:43:51;20.10;66.00
15578;DHT22;17667;45.598;5.214;2023-05-07T14:46:38;20.10;65.80
15578;DHT22;17667;45.598;5.214;2023-05-07T14:49:26;20.10;65.80
15578;DHT22;17667;45.598;5.214;2023-05-07T14:52:16;20.10;66.10
15578;DHT22;17667;45.598;5.214;2023-05-07T14:55:04;20.10;66.30
15578;DHT22;17667;45.598;5.214;2023-05-07T14:57:52;20.10;65.80
15578;DHT22;17667;45.598;5.214;2023-05-07T15:00:39;20.10;66.10
15578;DHT22;17667;45.598;5.214;2023-05-07T15:03:27;20.10;65.80
15578;DHT22;17667;45.598;5.214;2023-05-07T15:06:15;20.10;66.50
15578;DHT22;17667;45.598;5.214;2023-05-07T15:09:04;20.10;68.60
15578;DHT22;17667;45.598;5.214;2023-05-07T15:11:52;20.10;66.20
15578;DHT22;17667;45.598;5.214;2023-05-07T15:14:39;20.10;66.10
15578;DHT22;17667;45.598;5.214;2023-05-07T15:17:27;20.10;65.80
15578;DHT22;17667;45.598;5.214;2023-05-07T15:20:14;20.10;66.50
15578;DHT22;17667;45.598;5.214;2023-05-07T15:23:02;20.00;67.60
15578;DHT22;17667;45.598;5.214;2023-05-07T15:25:53;20.00;66.10
15578;DHT22;17667;45.598;5.214;2023-05-07T15:28:40;19.90;66.90
15578;DHT22;17667;45.598;5.214;2023-05-07T15:31:28;19.80;66.60
15578;DHT22;17667;45.598;5.214;2023-05-07T15:34:16;19.80;66.50
15578;DHT22;17667;45.598;5.214;2023-05-07T15:37:03;19.70;66.90
15578;DHT22;17667;45.598;5.214;2023-05-07T15:39:51;19.70;67.30
15578;DHT22;17667;45.598;5.214;2023-05-07T15:42:40;19.60;67.60
15578;DHT22;17667;45.598;5.214;2023-05-07T15:45:28;19.50;67.10
15578;DHT22;17667;45.598;5.214;2023-05-07T15:48:16;19.50;69.70
15578;DHT22;17667;45.598;5.214;2023-05-07T15:51:03;19.40;67.40
15578;DHT22;17667;45.598;5.214;2023-05-07T15:53:52;19.30;68.10
15578;DHT22;17667;45.598;5.214;2023-05-07T15:56:40;19.30;68.30
15578;DHT22;17667;45.598;5.214;2023-05-07T15:59:29;19.30;69.80
15578;DHT22;17667;45.598;5.214;2023-05-07T16:02:17;19.30;68.20
15578;DHT22;17667;45.598;5.214;2023-05-07T16:05:06;19.30;68.20
15578;DHT22;17667;45.598;5.214;2023-05-07T16:07:56;19.30;68.10
15578;DHT22;17667;45.598;5.214;2023-05-07T16:10:45;19.30;68.10
15578;DHT22;17667;45.598;5.214;2023-05-07T16:13:34;19.40;68.20
15578;DHT22;17667;45.598;5.214;2023-05-07T16:16:23;19.40;67.80
15578;DHT22;17667;45.598;5.214;2023-05-07T16:19:15;19.40;68.60
15578;DHT22;17667;45.598;5.214;2023-05-07T16:22:02;19.40;68.20
15578;DHT22;17667;45.598;5.214;2023-05-07T16:24:50;19.40;68.20
15578;DHT22;17667;45.598;5.214;2023-05-07T16:27:37;19.40;68.60
15578;DHT22;17667;45.598;5.214;2023-05-07T16:30:25;19.40;68.20
15578;DHT22;17667;45.598;5.214;2023-05-07T16:33:14;19.40;68.40
15578;DHT22;17667;45.598;5.214;2023-05-07T16:36:02;19.50;70.70
15578;DHT22;17667;45.598;5.214;2023-05-07T16:38:49;19.50;68.60
15578;DHT22;17667;45.598;5.214;2023-05-07T16:41:37;19.50;68.10
15578;DHT22;17667;45.598;5.214;2023-05-07T16:44:25;19.50;68.20
15578;DHT22;17667;45.598;5.214;2023-05-07T16:47:13;19.60;68.50
15578;DHT22;17667;45.598;5.214;2023-05-07T16:50:02;19.50;69.60
15578;DHT22;17667;45.598;5.214;2023-05-07T16:52:51;19.50;68.80
15578;DHT22;17667;45.598;5.214;2023-05-07T16:55:39;19.50;68.10
15578;DHT22;17667;45.598;5.214;2023-05-07T16:58:27;19.50;67.90
15578;DHT22;17667;45.598;5.214;2023-05-07T17:01:14;19.50;67.90
15578;DHT22;17667;45.598;5.214;2023-05-07T17:04:04;19.50;68.30
15578;DHT22;17667;45.598;5.214;2023-05-07T17:06:53;19.50;68.40
15578;DHT22;17667;45.598;5.214;2023-05-07T17:09:41;19.50;68.00
15578;DHT22;17667;45.598;5.214;2023-05-07T17:12:29;19.50;67.70
15578;DHT22;17667;45.598;5.214;2023-05-07T17:15:17;19.40;68.50
15578;DHT22;17667;45.598;5.214;2023-05-07T17:18:05;19.40;68.00
15578;DHT22;17667;45.598;5.214;2023-05-07T17:20:53;19.30;68.00
15578;DHT22;17667;45.598;5.214;2023-05-07T17:23:44;19.30;68.10
15578;DHT22;17667;45.598;5.214;2023-05-07T17:26:31;19.20;68.30
15578;DHT22;17667;45.598;5.214;2023-05-07T17:29:21;19.20;69.00
15578;DHT22;17667;45.598;5.214;2023-05-07T17:32:09;19.10;70.50
15578;DHT22;17667;45.598;5.214;2023-05-07T17:34:56;19.00;69.30
15578;DHT22;17667;45.598;5.214;2023-05-07T17:37:44;19.00;69.70
15578;DHT22;17667;45.598;5.214;2023-05-07T17:40:38;19.00;70.60
15578;DHT22;17667;45.598;5.214;2023-05-07T17:43:26;18.90;70.50
15578;DHT22;17667;45.598;5.214;2023-05-07T17:46:13;18.90;70.90
15578;DHT22;17667;45.598;5.214;2023-05-07T17:49:01;18.90;72.20
15578;DHT22;17667;45.598;5.214;2023-05-07T17:51:49;19.00;73.00
15578;DHT22;17667;45.598;5.214;2023-05-07T17:54:39;18.90;72.20